<?xml version="1.0" encoding="UTF-8" standalone="no" ?>
<gpx xmlns="http://www.topografix.com/GPX/1/1" xmlns:xsi="http://www.w3.org/2001/XMLSchema-instance" xsi:schemaLocation="http://www.topografix.com/GPX/1/1 http://www.topografix.com/GPX/1/1/gpx.xsd" version="1.1" creator="VisuGPX - https://www.visugpx.com">
  <metadata>
    <name>Col du Coq - Dent de Crolles - Pravouta</name>
    <desc><![CDATA[Super météo, super boucle !]]></desc>
  </metadata>
  <trk>
    <name><![CDATA[Boucle Col de Coq - Dent de Crolles - Pravouta]]></name>
    <desc><![CDATA[<h1>OruxMaps</h1><br /><hr align="center" width="480" style="height: 2px; width: 517px"/><h2>Nom: Boucle Col de Coq - Dent de Crolles - Pravouta</h2><br /><p>Temps de départ: 07/08/2015 18:11</p><p>Temps d'arrivée: 07/08/2015 20:17</p><p>Distance: 9,2km (02:05)</p><p>Temps déplacement: 01:46</p><p>Vitesse moyenne: 4,4km/h</p><p>Vitesse moyenne: 5,2km/h</p><p>Vitess Max.: 14,6km/h</p><p>Altitude minimale: 1387m</p><p>Altitude maximale: 2057m</p><p>Vitesse d'élévation: 802,6m/h</p><p>Vitesse de descente: -1068,4m/h</p><p>Gain Altitude: 933m</p><p>Perte Altitude: -934m</p><p>Temps d'élévation: 01:09</p><p>Temps de descente: 00:52</p><hr align="center" width="480" style="height: 2px; width: 517px"/>]]></desc>
    <trkseg>
      <trkpt lat="45.30451" lon="5.83869">
        <ele>1410.25</ele>
        <time>2015-07-08T16:11:27Z</time>
      </trkpt>
      <trkpt lat="45.30465" lon="5.83889">
        <ele>1408</ele>
        <time>2015-07-08T16:12:39Z</time>
      </trkpt>
      <trkpt lat="45.30482" lon="5.83906">
        <ele>1402.31</ele>
        <time>2015-07-08T16:12:50Z</time>
      </trkpt>
      <trkpt lat="45.30497" lon="5.83921">
        <ele>1402.24</ele>
        <time>2015-07-08T16:12:56Z</time>
      </trkpt>
      <trkpt lat="45.30512" lon="5.83936">
        <ele>1397.18</ele>
        <time>2015-07-08T16:13:02Z</time>
      </trkpt>
      <trkpt lat="45.30527" lon="5.83957">
        <ele>1397.97</ele>
        <time>2015-07-08T16:13:09Z</time>
      </trkpt>
      <trkpt lat="45.3054" lon="5.83976">
        <ele>1394.96</ele>
        <time>2015-07-08T16:13:17Z</time>
      </trkpt>
      <trkpt lat="45.30549" lon="5.84001">
        <ele>1394.03</ele>
        <time>2015-07-08T16:13:26Z</time>
      </trkpt>
      <trkpt lat="45.30565" lon="5.84017">
        <ele>1390.69</ele>
        <time>2015-07-08T16:13:37Z</time>
      </trkpt>
      <trkpt lat="45.3058" lon="5.84031">
        <ele>1387.88</ele>
        <time>2015-07-08T16:13:47Z</time>
      </trkpt>
      <trkpt lat="45.30595" lon="5.84048">
        <ele>1392</ele>
        <time>2015-07-08T16:13:53Z</time>
      </trkpt>
      <trkpt lat="45.30608" lon="5.84068">
        <ele>1393.92</ele>
        <time>2015-07-08T16:14:02Z</time>
      </trkpt>
      <trkpt lat="45.30619" lon="5.84089">
        <ele>1394.17</ele>
        <time>2015-07-08T16:14:12Z</time>
      </trkpt>
      <trkpt lat="45.30609" lon="5.84113">
        <ele>1409.09</ele>
        <time>2015-07-08T16:14:21Z</time>
      </trkpt>
      <trkpt lat="45.30604" lon="5.84139">
        <ele>1412.97</ele>
        <time>2015-07-08T16:14:29Z</time>
      </trkpt>
      <trkpt lat="45.306" lon="5.84165">
        <ele>1418.52</ele>
        <time>2015-07-08T16:14:38Z</time>
      </trkpt>
      <trkpt lat="45.30619" lon="5.84165">
        <ele>1423.75</ele>
        <time>2015-07-08T16:14:56Z</time>
      </trkpt>
      <trkpt lat="45.30638" lon="5.84158">
        <ele>1428.17</ele>
        <time>2015-07-08T16:15:06Z</time>
      </trkpt>
      <trkpt lat="45.30657" lon="5.84152">
        <ele>1427.77</ele>
        <time>2015-07-08T16:15:19Z</time>
      </trkpt>
      <trkpt lat="45.30675" lon="5.84145">
        <ele>1430.86</ele>
        <time>2015-07-08T16:15:33Z</time>
      </trkpt>
      <trkpt lat="45.30692" lon="5.84134">
        <ele>1433.18</ele>
        <time>2015-07-08T16:15:48Z</time>
      </trkpt>
      <trkpt lat="45.30709" lon="5.84126">
        <ele>1436</ele>
        <time>2015-07-08T16:16:03Z</time>
      </trkpt>
      <trkpt lat="45.30727" lon="5.8412">
        <ele>1443.72</ele>
        <time>2015-07-08T16:16:17Z</time>
      </trkpt>
      <trkpt lat="45.30732" lon="5.84145">
        <ele>1449.49</ele>
        <time>2015-07-08T16:16:43Z</time>
      </trkpt>
      <trkpt lat="45.30723" lon="5.84169">
        <ele>1450.61</ele>
        <time>2015-07-08T16:16:52Z</time>
      </trkpt>
      <trkpt lat="45.30715" lon="5.84193">
        <ele>1454</ele>
        <time>2015-07-08T16:17:20Z</time>
      </trkpt>
      <trkpt lat="45.30721" lon="5.84219">
        <ele>1455.05</ele>
        <time>2015-07-08T16:17:33Z</time>
      </trkpt>
      <trkpt lat="45.30738" lon="5.84227">
        <ele>1459.71</ele>
        <time>2015-07-08T16:17:45Z</time>
      </trkpt>
      <trkpt lat="45.30756" lon="5.84221">
        <ele>1464.44</ele>
        <time>2015-07-08T16:17:55Z</time>
      </trkpt>
      <trkpt lat="45.30773" lon="5.8421">
        <ele>1470.78</ele>
        <time>2015-07-08T16:18:05Z</time>
      </trkpt>
      <trkpt lat="45.30792" lon="5.84207">
        <ele>1472.26</ele>
        <time>2015-07-08T16:18:18Z</time>
      </trkpt>
      <trkpt lat="45.30811" lon="5.84203">
        <ele>1477.07</ele>
        <time>2015-07-08T16:18:30Z</time>
      </trkpt>
      <trkpt lat="45.30829" lon="5.84205">
        <ele>1478.24</ele>
        <time>2015-07-08T16:18:44Z</time>
      </trkpt>
      <trkpt lat="45.30847" lon="5.84207">
        <ele>1479.62</ele>
        <time>2015-07-08T16:19:05Z</time>
      </trkpt>
      <trkpt lat="45.30866" lon="5.84205">
        <ele>1484.64</ele>
        <time>2015-07-08T16:19:25Z</time>
      </trkpt>
      <trkpt lat="45.30884" lon="5.84207">
        <ele>1492.59</ele>
        <time>2015-07-08T16:19:42Z</time>
      </trkpt>
      <trkpt lat="45.30902" lon="5.84207">
        <ele>1500.18</ele>
        <time>2015-07-08T16:19:59Z</time>
      </trkpt>
      <trkpt lat="45.30921" lon="5.84206">
        <ele>1502.88</ele>
        <time>2015-07-08T16:20:17Z</time>
      </trkpt>
      <trkpt lat="45.30939" lon="5.84213">
        <ele>1510.4</ele>
        <time>2015-07-08T16:20:36Z</time>
      </trkpt>
      <trkpt lat="45.30958" lon="5.84213">
        <ele>1516.49</ele>
        <time>2015-07-08T16:20:52Z</time>
      </trkpt>
      <trkpt lat="45.30976" lon="5.84221">
        <ele>1514.1</ele>
        <time>2015-07-08T16:21:07Z</time>
      </trkpt>
      <trkpt lat="45.30994" lon="5.84219">
        <ele>1523.88</ele>
        <time>2015-07-08T16:21:28Z</time>
      </trkpt>
      <trkpt lat="45.31012" lon="5.84227">
        <ele>1527.95</ele>
        <time>2015-07-08T16:21:49Z</time>
      </trkpt>
      <trkpt lat="45.31008" lon="5.84252">
        <ele>1532.35</ele>
        <time>2015-07-08T16:22:10Z</time>
      </trkpt>
      <trkpt lat="45.31006" lon="5.84278">
        <ele>1540.03</ele>
        <time>2015-07-08T16:22:23Z</time>
      </trkpt>
      <trkpt lat="45.30997" lon="5.84301">
        <ele>1539.58</ele>
        <time>2015-07-08T16:22:37Z</time>
      </trkpt>
      <trkpt lat="45.30985" lon="5.84322">
        <ele>1545.78</ele>
        <time>2015-07-08T16:22:48Z</time>
      </trkpt>
      <trkpt lat="45.31003" lon="5.8433">
        <ele>1544.76</ele>
        <time>2015-07-08T16:23:02Z</time>
      </trkpt>
      <trkpt lat="45.31007" lon="5.84355">
        <ele>1553.88</ele>
        <time>2015-07-08T16:23:28Z</time>
      </trkpt>
      <trkpt lat="45.31016" lon="5.84379">
        <ele>1567.99</ele>
        <time>2015-07-08T16:24:00Z</time>
      </trkpt>
      <trkpt lat="45.31031" lon="5.84396">
        <ele>1568.69</ele>
        <time>2015-07-08T16:24:17Z</time>
      </trkpt>
      <trkpt lat="45.31014" lon="5.84409">
        <ele>1575.94</ele>
        <time>2015-07-08T16:24:40Z</time>
      </trkpt>
      <trkpt lat="45.31027" lon="5.84429">
        <ele>1584.36</ele>
        <time>2015-07-08T16:25:03Z</time>
      </trkpt>
      <trkpt lat="45.31043" lon="5.84442">
        <ele>1583.21</ele>
        <time>2015-07-08T16:25:20Z</time>
      </trkpt>
      <trkpt lat="45.31025" lon="5.84451">
        <ele>1588.22</ele>
        <time>2015-07-08T16:25:45Z</time>
      </trkpt>
      <trkpt lat="45.31037" lon="5.84471">
        <ele>1598.34</ele>
        <time>2015-07-08T16:26:07Z</time>
      </trkpt>
      <trkpt lat="45.31049" lon="5.8449">
        <ele>1602.97</ele>
        <time>2015-07-08T16:26:27Z</time>
      </trkpt>
      <trkpt lat="45.31044" lon="5.84515">
        <ele>1606.12</ele>
        <time>2015-07-08T16:27:14Z</time>
      </trkpt>
      <trkpt lat="45.31048" lon="5.84541">
        <ele>1623.96</ele>
        <time>2015-07-08T16:27:51Z</time>
      </trkpt>
      <trkpt lat="45.31041" lon="5.84566">
        <ele>1637.41</ele>
        <time>2015-07-08T16:28:19Z</time>
      </trkpt>
      <trkpt lat="45.31049" lon="5.8459">
        <ele>1646.4</ele>
        <time>2015-07-08T16:28:57Z</time>
      </trkpt>
      <trkpt lat="45.31064" lon="5.84605">
        <ele>1659.15</ele>
        <time>2015-07-08T16:29:37Z</time>
      </trkpt>
      <trkpt lat="45.31062" lon="5.84631">
        <ele>1664.48</ele>
        <time>2015-07-08T16:30:17Z</time>
      </trkpt>
      <trkpt lat="45.31048" lon="5.84648">
        <ele>1672.27</ele>
        <time>2015-07-08T16:30:43Z</time>
      </trkpt>
      <trkpt lat="45.31038" lon="5.8467">
        <ele>1678</ele>
        <time>2015-07-08T16:31:10Z</time>
      </trkpt>
      <trkpt lat="45.31025" lon="5.84687">
        <ele>1686.34</ele>
        <time>2015-07-08T16:31:39Z</time>
      </trkpt>
      <trkpt lat="45.31026" lon="5.84713">
        <ele>1701.09</ele>
        <time>2015-07-08T16:32:32Z</time>
      </trkpt>
      <trkpt lat="45.31033" lon="5.84737">
        <ele>1715.14</ele>
        <time>2015-07-08T16:33:20Z</time>
      </trkpt>
      <trkpt lat="45.31048" lon="5.84752">
        <ele>1729.62</ele>
        <time>2015-07-08T16:34:11Z</time>
      </trkpt>
      <trkpt lat="45.31065" lon="5.8476">
        <ele>1733.21</ele>
        <time>2015-07-08T16:34:28Z</time>
      </trkpt>
      <trkpt lat="45.31059" lon="5.84786">
        <ele>1736.11</ele>
        <time>2015-07-08T16:35:07Z</time>
      </trkpt>
      <trkpt lat="45.31066" lon="5.8481">
        <ele>1744</ele>
        <time>2015-07-08T16:35:56Z</time>
      </trkpt>
      <trkpt lat="45.3108" lon="5.84827">
        <ele>1748.89</ele>
        <time>2015-07-08T16:36:08Z</time>
      </trkpt>
      <trkpt lat="45.31062" lon="5.84831">
        <ele>1758.59</ele>
        <time>2015-07-08T16:36:38Z</time>
      </trkpt>
      <trkpt lat="45.31049" lon="5.84851">
        <ele>1764.65</ele>
        <time>2015-07-08T16:37:03Z</time>
      </trkpt>
      <trkpt lat="45.31066" lon="5.84862">
        <ele>1774.26</ele>
        <time>2015-07-08T16:37:24Z</time>
      </trkpt>
      <trkpt lat="45.31072" lon="5.84887">
        <ele>1787.12</ele>
        <time>2015-07-08T16:38:16Z</time>
      </trkpt>
      <trkpt lat="45.31084" lon="5.84907">
        <ele>1794.63</ele>
        <time>2015-07-08T16:39:00Z</time>
      </trkpt>
      <trkpt lat="45.31073" lon="5.84929">
        <ele>1800.88</ele>
        <time>2015-07-08T16:39:34Z</time>
      </trkpt>
      <trkpt lat="45.31059" lon="5.84945">
        <ele>1802.87</ele>
        <time>2015-07-08T16:39:47Z</time>
      </trkpt>
      <trkpt lat="45.31044" lon="5.8496">
        <ele>1802.49</ele>
        <time>2015-07-08T16:40:01Z</time>
      </trkpt>
      <trkpt lat="45.31025" lon="5.84958">
        <ele>1809.62</ele>
        <time>2015-07-08T16:40:12Z</time>
      </trkpt>
      <trkpt lat="45.3101" lon="5.84974">
        <ele>1820.5</ele>
        <time>2015-07-08T16:40:53Z</time>
      </trkpt>
      <trkpt lat="45.30993" lon="5.84983">
        <ele>1824.8</ele>
        <time>2015-07-08T16:41:07Z</time>
      </trkpt>
      <trkpt lat="45.3098" lon="5.85001">
        <ele>1827.51</ele>
        <time>2015-07-08T16:42:57Z</time>
      </trkpt>
      <trkpt lat="45.30966" lon="5.8502">
        <ele>1830.29</ele>
        <time>2015-07-08T16:43:05Z</time>
      </trkpt>
      <trkpt lat="45.30951" lon="5.85037">
        <ele>1830.01</ele>
        <time>2015-07-08T16:43:14Z</time>
      </trkpt>
      <trkpt lat="45.30936" lon="5.85053">
        <ele>1829.36</ele>
        <time>2015-07-08T16:43:26Z</time>
      </trkpt>
      <trkpt lat="45.30925" lon="5.85073">
        <ele>1843.1</ele>
        <time>2015-07-08T16:43:45Z</time>
      </trkpt>
      <trkpt lat="45.30912" lon="5.85093">
        <ele>1848.38</ele>
        <time>2015-07-08T16:44:05Z</time>
      </trkpt>
      <trkpt lat="45.309" lon="5.85113">
        <ele>1853.26</ele>
        <time>2015-07-08T16:44:21Z</time>
      </trkpt>
      <trkpt lat="45.30888" lon="5.85134">
        <ele>1856.83</ele>
        <time>2015-07-08T16:44:40Z</time>
      </trkpt>
      <trkpt lat="45.30878" lon="5.85156">
        <ele>1861.86</ele>
        <time>2015-07-08T16:44:57Z</time>
      </trkpt>
      <trkpt lat="45.30865" lon="5.85178">
        <ele>1862.73</ele>
        <time>2015-07-08T16:45:14Z</time>
      </trkpt>
      <trkpt lat="45.30865" lon="5.85204">
        <ele>1870.37</ele>
        <time>2015-07-08T16:45:30Z</time>
      </trkpt>
      <trkpt lat="45.30858" lon="5.85228">
        <ele>1885.13</ele>
        <time>2015-07-08T16:46:17Z</time>
      </trkpt>
      <trkpt lat="45.30851" lon="5.85252">
        <ele>1898.53</ele>
        <time>2015-07-08T16:47:19Z</time>
      </trkpt>
      <trkpt lat="45.30838" lon="5.85271">
        <ele>1906.16</ele>
        <time>2015-07-08T16:47:40Z</time>
      </trkpt>
      <trkpt lat="45.30824" lon="5.85286">
        <ele>1905.31</ele>
        <time>2015-07-08T16:48:05Z</time>
      </trkpt>
      <trkpt lat="45.30841" lon="5.85293">
        <ele>1907.49</ele>
        <time>2015-07-08T16:48:30Z</time>
      </trkpt>
      <trkpt lat="45.3086" lon="5.8529">
        <ele>1909.81</ele>
        <time>2015-07-08T16:48:46Z</time>
      </trkpt>
      <trkpt lat="45.30877" lon="5.8528">
        <ele>1917.63</ele>
        <time>2015-07-08T16:49:06Z</time>
      </trkpt>
      <trkpt lat="45.30862" lon="5.85296">
        <ele>1930.55</ele>
        <time>2015-07-08T16:49:42Z</time>
      </trkpt>
      <trkpt lat="45.3085" lon="5.85314">
        <ele>1934.62</ele>
        <time>2015-07-08T16:50:09Z</time>
      </trkpt>
      <trkpt lat="45.3086" lon="5.85337">
        <ele>1949.99</ele>
        <time>2015-07-08T16:51:49Z</time>
      </trkpt>
      <trkpt lat="45.30876" lon="5.8535">
        <ele>1971.66</ele>
        <time>2015-07-08T16:52:58Z</time>
      </trkpt>
      <trkpt lat="45.3089" lon="5.85368">
        <ele>1978.84</ele>
        <time>2015-07-08T16:53:41Z</time>
      </trkpt>
      <trkpt lat="45.30901" lon="5.85388">
        <ele>1988.82</ele>
        <time>2015-07-08T16:54:35Z</time>
      </trkpt>
      <trkpt lat="45.30899" lon="5.85413">
        <ele>2007.61</ele>
        <time>2015-07-08T16:55:34Z</time>
      </trkpt>
      <trkpt lat="45.30885" lon="5.85431">
        <ele>2013.27</ele>
        <time>2015-07-08T16:55:57Z</time>
      </trkpt>
      <trkpt lat="45.30869" lon="5.85442">
        <ele>2018.08</ele>
        <time>2015-07-08T16:56:20Z</time>
      </trkpt>
      <trkpt lat="45.30854" lon="5.85459">
        <ele>2025.34</ele>
        <time>2015-07-08T16:56:51Z</time>
      </trkpt>
      <trkpt lat="45.30846" lon="5.85483">
        <ele>2038.83</ele>
        <time>2015-07-08T16:57:27Z</time>
      </trkpt>
      <trkpt lat="45.3085" lon="5.85509">
        <ele>2044.76</ele>
        <time>2015-07-08T16:57:53Z</time>
      </trkpt>
      <trkpt lat="45.30839" lon="5.8553">
        <ele>2048.36</ele>
        <time>2015-07-08T16:58:22Z</time>
      </trkpt>
      <trkpt lat="45.30828" lon="5.85551">
        <ele>2055.82</ele>
        <time>2015-07-08T16:58:56Z</time>
      </trkpt>
      <trkpt lat="45.30827" lon="5.85555">
        <ele>2056.88</ele>
        <time>2015-07-08T16:59:18Z</time>
      </trkpt>
      <trkpt lat="45.30831" lon="5.85548">
        <ele>2057.88</ele>
        <time>2015-07-08T17:02:49Z</time>
      </trkpt>
      <trkpt lat="45.3083" lon="5.85552">
        <ele>2056.88</ele>
        <time>2015-07-08T17:04:09Z</time>
      </trkpt>
      <trkpt lat="45.30848" lon="5.85559">
        <ele>2053.64</ele>
        <time>2015-07-08T17:06:14Z</time>
      </trkpt>
      <trkpt lat="45.30866" lon="5.85561">
        <ele>2046.64</ele>
        <time>2015-07-08T17:06:27Z</time>
      </trkpt>
      <trkpt lat="45.30885" lon="5.85552">
        <ele>2041.74</ele>
        <time>2015-07-08T17:06:35Z</time>
      </trkpt>
      <trkpt lat="45.30905" lon="5.85555">
        <ele>2035.95</ele>
        <time>2015-07-08T17:06:45Z</time>
      </trkpt>
      <trkpt lat="45.30922" lon="5.8556">
        <ele>2028.93</ele>
        <time>2015-07-08T17:06:53Z</time>
      </trkpt>
      <trkpt lat="45.3094" lon="5.85552">
        <ele>2023.52</ele>
        <time>2015-07-08T17:07:00Z</time>
      </trkpt>
      <trkpt lat="45.3096" lon="5.85548">
        <ele>2020.81</ele>
        <time>2015-07-08T17:07:07Z</time>
      </trkpt>
      <trkpt lat="45.3098" lon="5.85546">
        <ele>2014.52</ele>
        <time>2015-07-08T17:07:16Z</time>
      </trkpt>
      <trkpt lat="45.30997" lon="5.85554">
        <ele>2005.98</ele>
        <time>2015-07-08T17:07:27Z</time>
      </trkpt>
      <trkpt lat="45.31015" lon="5.85562">
        <ele>1998.78</ele>
        <time>2015-07-08T17:07:35Z</time>
      </trkpt>
      <trkpt lat="45.31033" lon="5.85556">
        <ele>1998.64</ele>
        <time>2015-07-08T17:07:42Z</time>
      </trkpt>
      <trkpt lat="45.31052" lon="5.85551">
        <ele>1995.21</ele>
        <time>2015-07-08T17:07:50Z</time>
      </trkpt>
      <trkpt lat="45.3107" lon="5.85557">
        <ele>1991.59</ele>
        <time>2015-07-08T17:08:00Z</time>
      </trkpt>
      <trkpt lat="45.31088" lon="5.85564">
        <ele>1990.11</ele>
        <time>2015-07-08T17:08:11Z</time>
      </trkpt>
      <trkpt lat="45.31106" lon="5.85572">
        <ele>1982.43</ele>
        <time>2015-07-08T17:08:34Z</time>
      </trkpt>
      <trkpt lat="45.31125" lon="5.85586">
        <ele>1974.44</ele>
        <time>2015-07-08T17:08:53Z</time>
      </trkpt>
      <trkpt lat="45.31144" lon="5.85587">
        <ele>1970.72</ele>
        <time>2015-07-08T17:09:01Z</time>
      </trkpt>
      <trkpt lat="45.31164" lon="5.85588">
        <ele>1969.5</ele>
        <time>2015-07-08T17:09:09Z</time>
      </trkpt>
      <trkpt lat="45.31183" lon="5.85595">
        <ele>1968.77</ele>
        <time>2015-07-08T17:09:16Z</time>
      </trkpt>
      <trkpt lat="45.31202" lon="5.85596">
        <ele>1959.8</ele>
        <time>2015-07-08T17:09:24Z</time>
      </trkpt>
      <trkpt lat="45.31219" lon="5.85587">
        <ele>1957.11</ele>
        <time>2015-07-08T17:09:32Z</time>
      </trkpt>
      <trkpt lat="45.31237" lon="5.85585">
        <ele>1951.6</ele>
        <time>2015-07-08T17:09:43Z</time>
      </trkpt>
      <trkpt lat="45.31255" lon="5.85593">
        <ele>1944.58</ele>
        <time>2015-07-08T17:09:57Z</time>
      </trkpt>
      <trkpt lat="45.31274" lon="5.85587">
        <ele>1939.44</ele>
        <time>2015-07-08T17:10:07Z</time>
      </trkpt>
      <trkpt lat="45.31285" lon="5.85566">
        <ele>1935.45</ele>
        <time>2015-07-08T17:10:17Z</time>
      </trkpt>
      <trkpt lat="45.31301" lon="5.85552">
        <ele>1932.11</ele>
        <time>2015-07-08T17:10:28Z</time>
      </trkpt>
      <trkpt lat="45.31319" lon="5.85554">
        <ele>1923.82</ele>
        <time>2015-07-08T17:10:36Z</time>
      </trkpt>
      <trkpt lat="45.31336" lon="5.85564">
        <ele>1916.05</ele>
        <time>2015-07-08T17:10:45Z</time>
      </trkpt>
      <trkpt lat="45.31354" lon="5.85561">
        <ele>1911.77</ele>
        <time>2015-07-08T17:10:54Z</time>
      </trkpt>
      <trkpt lat="45.31371" lon="5.85554">
        <ele>1907.37</ele>
        <time>2015-07-08T17:11:03Z</time>
      </trkpt>
      <trkpt lat="45.31389" lon="5.85549">
        <ele>1900.2</ele>
        <time>2015-07-08T17:11:15Z</time>
      </trkpt>
      <trkpt lat="45.31407" lon="5.85539">
        <ele>1895.54</ele>
        <time>2015-07-08T17:11:26Z</time>
      </trkpt>
      <trkpt lat="45.31426" lon="5.85538">
        <ele>1891.3</ele>
        <time>2015-07-08T17:11:38Z</time>
      </trkpt>
      <trkpt lat="45.31445" lon="5.85543">
        <ele>1888.97</ele>
        <time>2015-07-08T17:11:47Z</time>
      </trkpt>
      <trkpt lat="45.31463" lon="5.85536">
        <ele>1883.94</ele>
        <time>2015-07-08T17:11:57Z</time>
      </trkpt>
      <trkpt lat="45.31479" lon="5.8552">
        <ele>1882.36</ele>
        <time>2015-07-08T17:12:06Z</time>
      </trkpt>
      <trkpt lat="45.31495" lon="5.85509">
        <ele>1877.25</ele>
        <time>2015-07-08T17:12:16Z</time>
      </trkpt>
      <trkpt lat="45.31511" lon="5.85523">
        <ele>1869.72</ele>
        <time>2015-07-08T17:12:30Z</time>
      </trkpt>
      <trkpt lat="45.31527" lon="5.85538">
        <ele>1867.81</ele>
        <time>2015-07-08T17:12:37Z</time>
      </trkpt>
      <trkpt lat="45.31546" lon="5.85538">
        <ele>1862.67</ele>
        <time>2015-07-08T17:12:44Z</time>
      </trkpt>
      <trkpt lat="45.31559" lon="5.85555">
        <ele>1858.02</ele>
        <time>2015-07-08T17:12:52Z</time>
      </trkpt>
      <trkpt lat="45.31578" lon="5.85553">
        <ele>1852.23</ele>
        <time>2015-07-08T17:13:00Z</time>
      </trkpt>
      <trkpt lat="45.31596" lon="5.8555">
        <ele>1848.86</ele>
        <time>2015-07-08T17:13:08Z</time>
      </trkpt>
      <trkpt lat="45.31614" lon="5.85548">
        <ele>1842.78</ele>
        <time>2015-07-08T17:13:17Z</time>
      </trkpt>
      <trkpt lat="45.31633" lon="5.85551">
        <ele>1837.3</ele>
        <time>2015-07-08T17:13:26Z</time>
      </trkpt>
      <trkpt lat="45.31651" lon="5.85559">
        <ele>1832.34</ele>
        <time>2015-07-08T17:13:34Z</time>
      </trkpt>
      <trkpt lat="45.31669" lon="5.8556">
        <ele>1829.6</ele>
        <time>2015-07-08T17:13:42Z</time>
      </trkpt>
      <trkpt lat="45.31685" lon="5.85547">
        <ele>1825.11</ele>
        <time>2015-07-08T17:13:52Z</time>
      </trkpt>
      <trkpt lat="45.31705" lon="5.85549">
        <ele>1819.69</ele>
        <time>2015-07-08T17:14:04Z</time>
      </trkpt>
      <trkpt lat="45.31724" lon="5.85551">
        <ele>1819.31</ele>
        <time>2015-07-08T17:14:13Z</time>
      </trkpt>
      <trkpt lat="45.31742" lon="5.8554">
        <ele>1815.9</ele>
        <time>2015-07-08T17:14:20Z</time>
      </trkpt>
      <trkpt lat="45.31761" lon="5.8553">
        <ele>1814.1</ele>
        <time>2015-07-08T17:14:27Z</time>
      </trkpt>
      <trkpt lat="45.3178" lon="5.85522">
        <ele>1809.24</ele>
        <time>2015-07-08T17:14:35Z</time>
      </trkpt>
      <trkpt lat="45.31799" lon="5.85521">
        <ele>1805.41</ele>
        <time>2015-07-08T17:14:44Z</time>
      </trkpt>
      <trkpt lat="45.31816" lon="5.85509">
        <ele>1799.48</ele>
        <time>2015-07-08T17:14:55Z</time>
      </trkpt>
      <trkpt lat="45.31834" lon="5.85506">
        <ele>1794.05</ele>
        <time>2015-07-08T17:15:05Z</time>
      </trkpt>
      <trkpt lat="45.31852" lon="5.85499">
        <ele>1790.32</ele>
        <time>2015-07-08T17:15:13Z</time>
      </trkpt>
      <trkpt lat="45.31867" lon="5.85484">
        <ele>1787.97</ele>
        <time>2015-07-08T17:15:22Z</time>
      </trkpt>
      <trkpt lat="45.31886" lon="5.85479">
        <ele>1783.84</ele>
        <time>2015-07-08T17:15:31Z</time>
      </trkpt>
      <trkpt lat="45.31893" lon="5.85454">
        <ele>1777.02</ele>
        <time>2015-07-08T17:15:52Z</time>
      </trkpt>
      <trkpt lat="45.31894" lon="5.85428">
        <ele>1775.71</ele>
        <time>2015-07-08T17:16:00Z</time>
      </trkpt>
      <trkpt lat="45.31906" lon="5.85409">
        <ele>1773.59</ele>
        <time>2015-07-08T17:16:09Z</time>
      </trkpt>
      <trkpt lat="45.31909" lon="5.85383">
        <ele>1773.08</ele>
        <time>2015-07-08T17:16:17Z</time>
      </trkpt>
      <trkpt lat="45.31914" lon="5.85356">
        <ele>1768.82</ele>
        <time>2015-07-08T17:16:25Z</time>
      </trkpt>
      <trkpt lat="45.31914" lon="5.8533">
        <ele>1767.12</ele>
        <time>2015-07-08T17:16:35Z</time>
      </trkpt>
      <trkpt lat="45.31904" lon="5.85308">
        <ele>1747.29</ele>
        <time>2015-07-08T17:17:22Z</time>
      </trkpt>
      <trkpt lat="45.31891" lon="5.8529">
        <ele>1746.89</ele>
        <time>2015-07-08T17:17:32Z</time>
      </trkpt>
      <trkpt lat="45.31876" lon="5.85276">
        <ele>1739.95</ele>
        <time>2015-07-08T17:17:52Z</time>
      </trkpt>
      <trkpt lat="45.31863" lon="5.85258">
        <ele>1737.55</ele>
        <time>2015-07-08T17:18:05Z</time>
      </trkpt>
      <trkpt lat="45.31853" lon="5.85236">
        <ele>1731.83</ele>
        <time>2015-07-08T17:18:49Z</time>
      </trkpt>
      <trkpt lat="45.31868" lon="5.85251">
        <ele>1728.17</ele>
        <time>2015-07-08T17:19:28Z</time>
      </trkpt>
      <trkpt lat="45.31866" lon="5.85226">
        <ele>1726.49</ele>
        <time>2015-07-08T17:20:07Z</time>
      </trkpt>
      <trkpt lat="45.31859" lon="5.85202">
        <ele>1718.7</ele>
        <time>2015-07-08T17:20:42Z</time>
      </trkpt>
      <trkpt lat="45.31844" lon="5.85187">
        <ele>1711.27</ele>
        <time>2015-07-08T17:21:16Z</time>
      </trkpt>
      <trkpt lat="45.31827" lon="5.85181">
        <ele>1702.22</ele>
        <time>2015-07-08T17:22:01Z</time>
      </trkpt>
      <trkpt lat="45.31809" lon="5.85174">
        <ele>1705.13</ele>
        <time>2015-07-08T17:23:15Z</time>
      </trkpt>
      <trkpt lat="45.31792" lon="5.85166">
        <ele>1701.03</ele>
        <time>2015-07-08T17:23:24Z</time>
      </trkpt>
      <trkpt lat="45.31777" lon="5.85149">
        <ele>1685.32</ele>
        <time>2015-07-08T17:24:20Z</time>
      </trkpt>
      <trkpt lat="45.31759" lon="5.85142">
        <ele>1682.89</ele>
        <time>2015-07-08T17:24:28Z</time>
      </trkpt>
      <trkpt lat="45.3174" lon="5.85142">
        <ele>1693.01</ele>
        <time>2015-07-08T17:24:42Z</time>
      </trkpt>
      <trkpt lat="45.31722" lon="5.85135">
        <ele>1696.43</ele>
        <time>2015-07-08T17:24:54Z</time>
      </trkpt>
      <trkpt lat="45.31704" lon="5.85127">
        <ele>1695.92</ele>
        <time>2015-07-08T17:25:05Z</time>
      </trkpt>
      <trkpt lat="45.31687" lon="5.85131">
        <ele>1693.51</ele>
        <time>2015-07-08T17:25:30Z</time>
      </trkpt>
      <trkpt lat="45.31668" lon="5.85124">
        <ele>1697.05</ele>
        <time>2015-07-08T17:25:49Z</time>
      </trkpt>
      <trkpt lat="45.3165" lon="5.85121">
        <ele>1704.58</ele>
        <time>2015-07-08T17:26:12Z</time>
      </trkpt>
      <trkpt lat="45.31635" lon="5.85108">
        <ele>1718.34</ele>
        <time>2015-07-08T17:26:50Z</time>
      </trkpt>
      <trkpt lat="45.31617" lon="5.85103">
        <ele>1722.46</ele>
        <time>2015-07-08T17:27:18Z</time>
      </trkpt>
      <trkpt lat="45.31602" lon="5.85087">
        <ele>1718.2</ele>
        <time>2015-07-08T17:27:32Z</time>
      </trkpt>
      <trkpt lat="45.31587" lon="5.85071">
        <ele>1713.55</ele>
        <time>2015-07-08T17:27:52Z</time>
      </trkpt>
      <trkpt lat="45.31578" lon="5.85048">
        <ele>1715.74</ele>
        <time>2015-07-08T17:28:09Z</time>
      </trkpt>
      <trkpt lat="45.31563" lon="5.8503">
        <ele>1716.88</ele>
        <time>2015-07-08T17:28:15Z</time>
      </trkpt>
      <trkpt lat="45.31547" lon="5.85017">
        <ele>1717.28</ele>
        <time>2015-07-08T17:28:23Z</time>
      </trkpt>
      <trkpt lat="45.31532" lon="5.85003">
        <ele>1716.22</ele>
        <time>2015-07-08T17:28:31Z</time>
      </trkpt>
      <trkpt lat="45.31512" lon="5.85">
        <ele>1709.06</ele>
        <time>2015-07-08T17:28:39Z</time>
      </trkpt>
      <trkpt lat="45.31495" lon="5.84985">
        <ele>1708.37</ele>
        <time>2015-07-08T17:28:47Z</time>
      </trkpt>
      <trkpt lat="45.31479" lon="5.84973">
        <ele>1704.07</ele>
        <time>2015-07-08T17:28:56Z</time>
      </trkpt>
      <trkpt lat="45.31461" lon="5.84962">
        <ele>1704.37</ele>
        <time>2015-07-08T17:29:04Z</time>
      </trkpt>
      <trkpt lat="45.31448" lon="5.84941">
        <ele>1699.18</ele>
        <time>2015-07-08T17:29:12Z</time>
      </trkpt>
      <trkpt lat="45.31435" lon="5.84918">
        <ele>1699.69</ele>
        <time>2015-07-08T17:29:20Z</time>
      </trkpt>
      <trkpt lat="45.3142" lon="5.84904">
        <ele>1703.42</ele>
        <time>2015-07-08T17:29:30Z</time>
      </trkpt>
      <trkpt lat="45.31402" lon="5.84891">
        <ele>1700.79</ele>
        <time>2015-07-08T17:29:39Z</time>
      </trkpt>
      <trkpt lat="45.31384" lon="5.84885">
        <ele>1689.52</ele>
        <time>2015-07-08T17:29:49Z</time>
      </trkpt>
      <trkpt lat="45.31369" lon="5.84865">
        <ele>1687.11</ele>
        <time>2015-07-08T17:29:58Z</time>
      </trkpt>
      <trkpt lat="45.31357" lon="5.84844">
        <ele>1685.17</ele>
        <time>2015-07-08T17:30:06Z</time>
      </trkpt>
      <trkpt lat="45.31342" lon="5.84827">
        <ele>1688.49</ele>
        <time>2015-07-08T17:30:15Z</time>
      </trkpt>
      <trkpt lat="45.3133" lon="5.84808">
        <ele>1688.01</ele>
        <time>2015-07-08T17:30:26Z</time>
      </trkpt>
      <trkpt lat="45.31319" lon="5.84787">
        <ele>1684.49</ele>
        <time>2015-07-08T17:30:38Z</time>
      </trkpt>
      <trkpt lat="45.31307" lon="5.84765">
        <ele>1683.51</ele>
        <time>2015-07-08T17:30:48Z</time>
      </trkpt>
      <trkpt lat="45.31296" lon="5.84743">
        <ele>1684.43</ele>
        <time>2015-07-08T17:30:57Z</time>
      </trkpt>
      <trkpt lat="45.31284" lon="5.84721">
        <ele>1686.81</ele>
        <time>2015-07-08T17:31:07Z</time>
      </trkpt>
      <trkpt lat="45.31267" lon="5.84705">
        <ele>1683.89</ele>
        <time>2015-07-08T17:31:17Z</time>
      </trkpt>
      <trkpt lat="45.3125" lon="5.84691">
        <ele>1678.05</ele>
        <time>2015-07-08T17:31:27Z</time>
      </trkpt>
      <trkpt lat="45.31229" lon="5.84681">
        <ele>1677.2</ele>
        <time>2015-07-08T17:31:36Z</time>
      </trkpt>
      <trkpt lat="45.31211" lon="5.84674">
        <ele>1671.28</ele>
        <time>2015-07-08T17:31:50Z</time>
      </trkpt>
      <trkpt lat="45.31194" lon="5.84664">
        <ele>1663.8</ele>
        <time>2015-07-08T17:32:06Z</time>
      </trkpt>
      <trkpt lat="45.31174" lon="5.84665">
        <ele>1659.03</ele>
        <time>2015-07-08T17:32:18Z</time>
      </trkpt>
      <trkpt lat="45.31158" lon="5.84654">
        <ele>1658.11</ele>
        <time>2015-07-08T17:32:25Z</time>
      </trkpt>
      <trkpt lat="45.31144" lon="5.84634">
        <ele>1661.43</ele>
        <time>2015-07-08T17:32:35Z</time>
      </trkpt>
      <trkpt lat="45.31127" lon="5.84623">
        <ele>1654.29</ele>
        <time>2015-07-08T17:32:45Z</time>
      </trkpt>
      <trkpt lat="45.31108" lon="5.84612">
        <ele>1650.84</ele>
        <time>2015-07-08T17:32:53Z</time>
      </trkpt>
      <trkpt lat="45.31092" lon="5.84599">
        <ele>1649.02</ele>
        <time>2015-07-08T17:33:01Z</time>
      </trkpt>
      <trkpt lat="45.31075" lon="5.84586">
        <ele>1643.23</ele>
        <time>2015-07-08T17:33:14Z</time>
      </trkpt>
      <trkpt lat="45.31058" lon="5.84574">
        <ele>1640.15</ele>
        <time>2015-07-08T17:33:22Z</time>
      </trkpt>
      <trkpt lat="45.31046" lon="5.84555">
        <ele>1635.23</ele>
        <time>2015-07-08T17:33:32Z</time>
      </trkpt>
      <trkpt lat="45.3104" lon="5.8453">
        <ele>1624</ele>
        <time>2015-07-08T17:33:53Z</time>
      </trkpt>
      <trkpt lat="45.31038" lon="5.84503">
        <ele>1612.96</ele>
        <time>2015-07-08T17:34:12Z</time>
      </trkpt>
      <trkpt lat="45.31055" lon="5.84493">
        <ele>1603.37</ele>
        <time>2015-07-08T17:34:24Z</time>
      </trkpt>
      <trkpt lat="45.31041" lon="5.84474">
        <ele>1598.23</ele>
        <time>2015-07-08T17:34:33Z</time>
      </trkpt>
      <trkpt lat="45.31024" lon="5.84462">
        <ele>1592.78</ele>
        <time>2015-07-08T17:34:42Z</time>
      </trkpt>
      <trkpt lat="45.3104" lon="5.84449">
        <ele>1589.28</ele>
        <time>2015-07-08T17:34:55Z</time>
      </trkpt>
      <trkpt lat="45.31026" lon="5.84431">
        <ele>1583.52</ele>
        <time>2015-07-08T17:35:05Z</time>
      </trkpt>
      <trkpt lat="45.31008" lon="5.84416">
        <ele>1581.15</ele>
        <time>2015-07-08T17:35:12Z</time>
      </trkpt>
      <trkpt lat="45.31027" lon="5.84406">
        <ele>1574.02</ele>
        <time>2015-07-08T17:35:25Z</time>
      </trkpt>
      <trkpt lat="45.31017" lon="5.84383">
        <ele>1567.61</ele>
        <time>2015-07-08T17:35:39Z</time>
      </trkpt>
      <trkpt lat="45.31" lon="5.84376">
        <ele>1565.2</ele>
        <time>2015-07-08T17:35:46Z</time>
      </trkpt>
      <trkpt lat="45.31009" lon="5.84354">
        <ele>1557.49</ele>
        <time>2015-07-08T17:35:58Z</time>
      </trkpt>
      <trkpt lat="45.30999" lon="5.84332">
        <ele>1551.88</ele>
        <time>2015-07-08T17:36:13Z</time>
      </trkpt>
      <trkpt lat="45.30981" lon="5.84325">
        <ele>1551.87</ele>
        <time>2015-07-08T17:36:23Z</time>
      </trkpt>
      <trkpt lat="45.30995" lon="5.84304">
        <ele>1548.15</ele>
        <time>2015-07-08T17:36:32Z</time>
      </trkpt>
      <trkpt lat="45.31006" lon="5.84283">
        <ele>1541.39</ele>
        <time>2015-07-08T17:36:40Z</time>
      </trkpt>
      <trkpt lat="45.31008" lon="5.84256">
        <ele>1541.13</ele>
        <time>2015-07-08T17:36:48Z</time>
      </trkpt>
      <trkpt lat="45.31018" lon="5.84234">
        <ele>1541.15</ele>
        <time>2015-07-08T17:36:55Z</time>
      </trkpt>
      <trkpt lat="45.3103" lon="5.84213">
        <ele>1539.97</ele>
        <time>2015-07-08T17:37:06Z</time>
      </trkpt>
      <trkpt lat="45.31043" lon="5.84191">
        <ele>1539.82</ele>
        <time>2015-07-08T17:37:14Z</time>
      </trkpt>
      <trkpt lat="45.31055" lon="5.84167">
        <ele>1537.69</ele>
        <time>2015-07-08T17:37:22Z</time>
      </trkpt>
      <trkpt lat="45.31062" lon="5.84142">
        <ele>1537.57</ele>
        <time>2015-07-08T17:37:30Z</time>
      </trkpt>
      <trkpt lat="45.31068" lon="5.84117">
        <ele>1536.97</ele>
        <time>2015-07-08T17:37:42Z</time>
      </trkpt>
      <trkpt lat="45.31072" lon="5.8409">
        <ele>1538.35</ele>
        <time>2015-07-08T17:37:56Z</time>
      </trkpt>
      <trkpt lat="45.31071" lon="5.84064">
        <ele>1542.48</ele>
        <time>2015-07-08T17:38:17Z</time>
      </trkpt>
      <trkpt lat="45.31067" lon="5.84037">
        <ele>1554.79</ele>
        <time>2015-07-08T17:38:34Z</time>
      </trkpt>
      <trkpt lat="45.31055" lon="5.84015">
        <ele>1560.96</ele>
        <time>2015-07-08T17:38:49Z</time>
      </trkpt>
      <trkpt lat="45.31067" lon="5.83993">
        <ele>1574.79</ele>
        <time>2015-07-08T17:39:13Z</time>
      </trkpt>
      <trkpt lat="45.31081" lon="5.83976">
        <ele>1575.68</ele>
        <time>2015-07-08T17:39:32Z</time>
      </trkpt>
      <trkpt lat="45.31092" lon="5.83953">
        <ele>1574.44</ele>
        <time>2015-07-08T17:39:51Z</time>
      </trkpt>
      <trkpt lat="45.31104" lon="5.83933">
        <ele>1582.8</ele>
        <time>2015-07-08T17:40:05Z</time>
      </trkpt>
      <trkpt lat="45.31116" lon="5.83913">
        <ele>1590.33</ele>
        <time>2015-07-08T17:40:31Z</time>
      </trkpt>
      <trkpt lat="45.3113" lon="5.83895">
        <ele>1597.23</ele>
        <time>2015-07-08T17:40:51Z</time>
      </trkpt>
      <trkpt lat="45.31146" lon="5.83881">
        <ele>1599.8</ele>
        <time>2015-07-08T17:41:04Z</time>
      </trkpt>
      <trkpt lat="45.31162" lon="5.83867">
        <ele>1597.98</ele>
        <time>2015-07-08T17:41:17Z</time>
      </trkpt>
      <trkpt lat="45.3118" lon="5.83856">
        <ele>1601.01</ele>
        <time>2015-07-08T17:41:31Z</time>
      </trkpt>
      <trkpt lat="45.31198" lon="5.83846">
        <ele>1600.27</ele>
        <time>2015-07-08T17:41:40Z</time>
      </trkpt>
      <trkpt lat="45.31215" lon="5.83837">
        <ele>1600</ele>
        <time>2015-07-08T17:41:50Z</time>
      </trkpt>
      <trkpt lat="45.31232" lon="5.83828">
        <ele>1604.68</ele>
        <time>2015-07-08T17:42:02Z</time>
      </trkpt>
      <trkpt lat="45.31247" lon="5.83811">
        <ele>1605.51</ele>
        <time>2015-07-08T17:42:20Z</time>
      </trkpt>
      <trkpt lat="45.31263" lon="5.83799">
        <ele>1613.77</ele>
        <time>2015-07-08T17:42:40Z</time>
      </trkpt>
      <trkpt lat="45.31281" lon="5.83791">
        <ele>1616.88</ele>
        <time>2015-07-08T17:43:01Z</time>
      </trkpt>
      <trkpt lat="45.31297" lon="5.83781">
        <ele>1628.48</ele>
        <time>2015-07-08T17:43:52Z</time>
      </trkpt>
      <trkpt lat="45.31314" lon="5.83769">
        <ele>1633.61</ele>
        <time>2015-07-08T17:44:17Z</time>
      </trkpt>
      <trkpt lat="45.3133" lon="5.83758">
        <ele>1630.9</ele>
        <time>2015-07-08T17:44:32Z</time>
      </trkpt>
      <trkpt lat="45.31349" lon="5.83756">
        <ele>1640.98</ele>
        <time>2015-07-08T17:44:50Z</time>
      </trkpt>
      <trkpt lat="45.31364" lon="5.83743">
        <ele>1644.08</ele>
        <time>2015-07-08T17:45:07Z</time>
      </trkpt>
      <trkpt lat="45.3138" lon="5.83729">
        <ele>1656.63</ele>
        <time>2015-07-08T17:45:47Z</time>
      </trkpt>
      <trkpt lat="45.31395" lon="5.83715">
        <ele>1668.53</ele>
        <time>2015-07-08T17:46:21Z</time>
      </trkpt>
      <trkpt lat="45.31413" lon="5.83705">
        <ele>1673.81</ele>
        <time>2015-07-08T17:46:35Z</time>
      </trkpt>
      <trkpt lat="45.31412" lon="5.8368">
        <ele>1672.78</ele>
        <time>2015-07-08T17:47:23Z</time>
      </trkpt>
      <trkpt lat="45.31421" lon="5.83656">
        <ele>1676.74</ele>
        <time>2015-07-08T17:47:54Z</time>
      </trkpt>
      <trkpt lat="45.31407" lon="5.8364">
        <ele>1689.94</ele>
        <time>2015-07-08T17:48:32Z</time>
      </trkpt>
      <trkpt lat="45.31388" lon="5.8364">
        <ele>1697.24</ele>
        <time>2015-07-08T17:48:59Z</time>
      </trkpt>
      <trkpt lat="45.31371" lon="5.83631">
        <ele>1709.49</ele>
        <time>2015-07-08T17:49:21Z</time>
      </trkpt>
      <trkpt lat="45.31353" lon="5.83622">
        <ele>1715.87</ele>
        <time>2015-07-08T17:49:39Z</time>
      </trkpt>
      <trkpt lat="45.31337" lon="5.83608">
        <ele>1720.11</ele>
        <time>2015-07-08T17:50:01Z</time>
      </trkpt>
      <trkpt lat="45.3132" lon="5.83601">
        <ele>1720.12</ele>
        <time>2015-07-08T17:50:20Z</time>
      </trkpt>
      <trkpt lat="45.31304" lon="5.83588">
        <ele>1719.77</ele>
        <time>2015-07-08T17:50:30Z</time>
      </trkpt>
      <trkpt lat="45.31286" lon="5.83584">
        <ele>1725.25</ele>
        <time>2015-07-08T17:50:48Z</time>
      </trkpt>
      <trkpt lat="45.31268" lon="5.83577">
        <ele>1725.53</ele>
        <time>2015-07-08T17:51:08Z</time>
      </trkpt>
      <trkpt lat="45.31249" lon="5.83571">
        <ele>1731.6</ele>
        <time>2015-07-08T17:51:26Z</time>
      </trkpt>
      <trkpt lat="45.31231" lon="5.83567">
        <ele>1731.35</ele>
        <time>2015-07-08T17:51:42Z</time>
      </trkpt>
      <trkpt lat="45.31213" lon="5.83559">
        <ele>1733.96</ele>
        <time>2015-07-08T17:51:58Z</time>
      </trkpt>
      <trkpt lat="45.31196" lon="5.83549">
        <ele>1740.31</ele>
        <time>2015-07-08T17:52:17Z</time>
      </trkpt>
      <trkpt lat="45.31179" lon="5.83537">
        <ele>1741.94</ele>
        <time>2015-07-08T17:52:32Z</time>
      </trkpt>
      <trkpt lat="45.31162" lon="5.83527">
        <ele>1745.77</ele>
        <time>2015-07-08T17:52:44Z</time>
      </trkpt>
      <trkpt lat="45.31144" lon="5.83525">
        <ele>1746.02</ele>
        <time>2015-07-08T17:53:03Z</time>
      </trkpt>
      <trkpt lat="45.31131" lon="5.83544">
        <ele>1757.88</ele>
        <time>2015-07-08T17:56:45Z</time>
      </trkpt>
      <trkpt lat="45.31112" lon="5.83546">
        <ele>1749.02</ele>
        <time>2015-07-08T17:58:07Z</time>
      </trkpt>
      <trkpt lat="45.31094" lon="5.83548">
        <ele>1740.63</ele>
        <time>2015-07-08T17:58:27Z</time>
      </trkpt>
      <trkpt lat="45.31112" lon="5.83542">
        <ele>1743.2</ele>
        <time>2015-07-08T17:58:49Z</time>
      </trkpt>
      <trkpt lat="45.3113" lon="5.83537">
        <ele>1753.31</ele>
        <time>2015-07-08T17:59:07Z</time>
      </trkpt>
      <trkpt lat="45.31149" lon="5.83543">
        <ele>1752.5</ele>
        <time>2015-07-08T17:59:16Z</time>
      </trkpt>
      <trkpt lat="45.31167" lon="5.8355">
        <ele>1750.07</ele>
        <time>2015-07-08T17:59:27Z</time>
      </trkpt>
      <trkpt lat="45.31185" lon="5.83556">
        <ele>1745.64</ele>
        <time>2015-07-08T17:59:38Z</time>
      </trkpt>
      <trkpt lat="45.31205" lon="5.83561">
        <ele>1741.57</ele>
        <time>2015-07-08T17:59:48Z</time>
      </trkpt>
      <trkpt lat="45.31223" lon="5.8357">
        <ele>1737.19</ele>
        <time>2015-07-08T17:59:58Z</time>
      </trkpt>
      <trkpt lat="45.31242" lon="5.83575">
        <ele>1735.63</ele>
        <time>2015-07-08T18:00:10Z</time>
      </trkpt>
      <trkpt lat="45.31261" lon="5.83581">
        <ele>1729.54</ele>
        <time>2015-07-08T18:00:22Z</time>
      </trkpt>
      <trkpt lat="45.31279" lon="5.83581">
        <ele>1726.44</ele>
        <time>2015-07-08T18:00:35Z</time>
      </trkpt>
      <trkpt lat="45.31297" lon="5.83585">
        <ele>1726.04</ele>
        <time>2015-07-08T18:00:45Z</time>
      </trkpt>
      <trkpt lat="45.31314" lon="5.83596">
        <ele>1723.48</ele>
        <time>2015-07-08T18:00:57Z</time>
      </trkpt>
      <trkpt lat="45.31331" lon="5.83606">
        <ele>1714.7</ele>
        <time>2015-07-08T18:01:11Z</time>
      </trkpt>
      <trkpt lat="45.31348" lon="5.83619">
        <ele>1709.22</ele>
        <time>2015-07-08T18:01:24Z</time>
      </trkpt>
      <trkpt lat="45.31366" lon="5.8363">
        <ele>1702.97</ele>
        <time>2015-07-08T18:01:34Z</time>
      </trkpt>
      <trkpt lat="45.31384" lon="5.83638">
        <ele>1705.63</ele>
        <time>2015-07-08T18:01:44Z</time>
      </trkpt>
      <trkpt lat="45.31401" lon="5.83644">
        <ele>1700.46</ele>
        <time>2015-07-08T18:01:56Z</time>
      </trkpt>
      <trkpt lat="45.31418" lon="5.83634">
        <ele>1689.82</ele>
        <time>2015-07-08T18:02:11Z</time>
      </trkpt>
      <trkpt lat="45.31417" lon="5.83606">
        <ele>1687.01</ele>
        <time>2015-07-08T18:02:21Z</time>
      </trkpt>
      <trkpt lat="45.31408" lon="5.83582">
        <ele>1686.28</ele>
        <time>2015-07-08T18:02:29Z</time>
      </trkpt>
      <trkpt lat="45.314" lon="5.83556">
        <ele>1686.31</ele>
        <time>2015-07-08T18:02:37Z</time>
      </trkpt>
      <trkpt lat="45.3139" lon="5.83532">
        <ele>1685.82</ele>
        <time>2015-07-08T18:02:45Z</time>
      </trkpt>
      <trkpt lat="45.3138" lon="5.83509">
        <ele>1684.95</ele>
        <time>2015-07-08T18:02:53Z</time>
      </trkpt>
      <trkpt lat="45.31362" lon="5.83499">
        <ele>1682.21</ele>
        <time>2015-07-08T18:03:05Z</time>
      </trkpt>
      <trkpt lat="45.31348" lon="5.83482">
        <ele>1677.24</ele>
        <time>2015-07-08T18:03:27Z</time>
      </trkpt>
      <trkpt lat="45.31333" lon="5.83467">
        <ele>1669.07</ele>
        <time>2015-07-08T18:03:38Z</time>
      </trkpt>
      <trkpt lat="45.31318" lon="5.8345">
        <ele>1663.89</ele>
        <time>2015-07-08T18:03:46Z</time>
      </trkpt>
      <trkpt lat="45.31302" lon="5.83437">
        <ele>1659.54</ele>
        <time>2015-07-08T18:03:56Z</time>
      </trkpt>
      <trkpt lat="45.31285" lon="5.8342">
        <ele>1652.71</ele>
        <time>2015-07-08T18:04:04Z</time>
      </trkpt>
      <trkpt lat="45.31277" lon="5.83393">
        <ele>1650.86</ele>
        <time>2015-07-08T18:04:10Z</time>
      </trkpt>
      <trkpt lat="45.31275" lon="5.83366">
        <ele>1651.99</ele>
        <time>2015-07-08T18:04:17Z</time>
      </trkpt>
      <trkpt lat="45.3128" lon="5.83342">
        <ele>1651.28</ele>
        <time>2015-07-08T18:04:24Z</time>
      </trkpt>
      <trkpt lat="45.31287" lon="5.83313">
        <ele>1647.38</ele>
        <time>2015-07-08T18:04:31Z</time>
      </trkpt>
      <trkpt lat="45.31293" lon="5.83286">
        <ele>1644.07</ele>
        <time>2015-07-08T18:04:39Z</time>
      </trkpt>
      <trkpt lat="45.31301" lon="5.83261">
        <ele>1642.25</ele>
        <time>2015-07-08T18:04:46Z</time>
      </trkpt>
      <trkpt lat="45.31302" lon="5.83234">
        <ele>1634.57</ele>
        <time>2015-07-08T18:04:55Z</time>
      </trkpt>
      <trkpt lat="45.31288" lon="5.83218">
        <ele>1632.65</ele>
        <time>2015-07-08T18:05:02Z</time>
      </trkpt>
      <trkpt lat="45.31275" lon="5.83196">
        <ele>1628.34</ele>
        <time>2015-07-08T18:05:10Z</time>
      </trkpt>
      <trkpt lat="45.31261" lon="5.8318">
        <ele>1624.95</ele>
        <time>2015-07-08T18:05:17Z</time>
      </trkpt>
      <trkpt lat="45.31244" lon="5.83165">
        <ele>1623.62</ele>
        <time>2015-07-08T18:05:24Z</time>
      </trkpt>
      <trkpt lat="45.31229" lon="5.83148">
        <ele>1619.46</ele>
        <time>2015-07-08T18:05:32Z</time>
      </trkpt>
      <trkpt lat="45.31213" lon="5.83133">
        <ele>1616.26</ele>
        <time>2015-07-08T18:05:40Z</time>
      </trkpt>
      <trkpt lat="45.31198" lon="5.8312">
        <ele>1613.64</ele>
        <time>2015-07-08T18:05:47Z</time>
      </trkpt>
      <trkpt lat="45.31183" lon="5.83101">
        <ele>1613.53</ele>
        <time>2015-07-08T18:05:54Z</time>
      </trkpt>
      <trkpt lat="45.31166" lon="5.83085">
        <ele>1615</ele>
        <time>2015-07-08T18:06:02Z</time>
      </trkpt>
      <trkpt lat="45.31147" lon="5.83079">
        <ele>1612.71</ele>
        <time>2015-07-08T18:06:09Z</time>
      </trkpt>
      <trkpt lat="45.31127" lon="5.83079">
        <ele>1607.29</ele>
        <time>2015-07-08T18:06:17Z</time>
      </trkpt>
      <trkpt lat="45.3111" lon="5.83067">
        <ele>1602.24</ele>
        <time>2015-07-08T18:06:25Z</time>
      </trkpt>
      <trkpt lat="45.31109" lon="5.83039">
        <ele>1599.07</ele>
        <time>2015-07-08T18:06:32Z</time>
      </trkpt>
      <trkpt lat="45.3112" lon="5.83014">
        <ele>1597.49</ele>
        <time>2015-07-08T18:06:39Z</time>
      </trkpt>
      <trkpt lat="45.31133" lon="5.82994">
        <ele>1590.11</ele>
        <time>2015-07-08T18:06:47Z</time>
      </trkpt>
      <trkpt lat="45.31151" lon="5.82982">
        <ele>1582.9</ele>
        <time>2015-07-08T18:06:54Z</time>
      </trkpt>
      <trkpt lat="45.31165" lon="5.82965">
        <ele>1581.23</ele>
        <time>2015-07-08T18:07:01Z</time>
      </trkpt>
      <trkpt lat="45.31178" lon="5.82943">
        <ele>1578.5</ele>
        <time>2015-07-08T18:07:09Z</time>
      </trkpt>
      <trkpt lat="45.3117" lon="5.82917">
        <ele>1573.67</ele>
        <time>2015-07-08T18:07:20Z</time>
      </trkpt>
      <trkpt lat="45.3115" lon="5.82912">
        <ele>1571.04</ele>
        <time>2015-07-08T18:07:28Z</time>
      </trkpt>
      <trkpt lat="45.31131" lon="5.82909">
        <ele>1568.26</ele>
        <time>2015-07-08T18:07:36Z</time>
      </trkpt>
      <trkpt lat="45.31111" lon="5.82905">
        <ele>1565.03</ele>
        <time>2015-07-08T18:07:45Z</time>
      </trkpt>
      <trkpt lat="45.31092" lon="5.82902">
        <ele>1559.48</ele>
        <time>2015-07-08T18:07:53Z</time>
      </trkpt>
      <trkpt lat="45.31074" lon="5.82901">
        <ele>1553.71</ele>
        <time>2015-07-08T18:08:01Z</time>
      </trkpt>
      <trkpt lat="45.31055" lon="5.82899">
        <ele>1550.41</ele>
        <time>2015-07-08T18:08:10Z</time>
      </trkpt>
      <trkpt lat="45.31037" lon="5.82896">
        <ele>1547.1</ele>
        <time>2015-07-08T18:08:23Z</time>
      </trkpt>
      <trkpt lat="45.31021" lon="5.82909">
        <ele>1538.01</ele>
        <time>2015-07-08T18:08:33Z</time>
      </trkpt>
      <trkpt lat="45.31002" lon="5.82921">
        <ele>1536.18</ele>
        <time>2015-07-08T18:08:42Z</time>
      </trkpt>
      <trkpt lat="45.30982" lon="5.82929">
        <ele>1537.29</ele>
        <time>2015-07-08T18:08:48Z</time>
      </trkpt>
      <trkpt lat="45.30962" lon="5.82933">
        <ele>1533.31</ele>
        <time>2015-07-08T18:08:54Z</time>
      </trkpt>
      <trkpt lat="45.30942" lon="5.82933">
        <ele>1533.03</ele>
        <time>2015-07-08T18:09:00Z</time>
      </trkpt>
      <trkpt lat="45.30923" lon="5.8293">
        <ele>1531.21</ele>
        <time>2015-07-08T18:09:07Z</time>
      </trkpt>
      <trkpt lat="45.30905" lon="5.82922">
        <ele>1529.16</ele>
        <time>2015-07-08T18:09:13Z</time>
      </trkpt>
      <trkpt lat="45.30887" lon="5.8292">
        <ele>1533.36</ele>
        <time>2015-07-08T18:09:18Z</time>
      </trkpt>
      <trkpt lat="45.30867" lon="5.82917">
        <ele>1535.4</ele>
        <time>2015-07-08T18:09:24Z</time>
      </trkpt>
      <trkpt lat="45.30849" lon="5.8293">
        <ele>1518.98</ele>
        <time>2015-07-08T18:09:41Z</time>
      </trkpt>
      <trkpt lat="45.3083" lon="5.82936">
        <ele>1506.19</ele>
        <time>2015-07-08T18:09:50Z</time>
      </trkpt>
      <trkpt lat="45.3082" lon="5.82961">
        <ele>1493.07</ele>
        <time>2015-07-08T18:09:58Z</time>
      </trkpt>
      <trkpt lat="45.30815" lon="5.82988">
        <ele>1484.19</ele>
        <time>2015-07-08T18:10:05Z</time>
      </trkpt>
      <trkpt lat="45.30809" lon="5.83013">
        <ele>1486.41</ele>
        <time>2015-07-08T18:10:11Z</time>
      </trkpt>
      <trkpt lat="45.30798" lon="5.83039">
        <ele>1487.06</ele>
        <time>2015-07-08T18:10:17Z</time>
      </trkpt>
      <trkpt lat="45.30788" lon="5.8306">
        <ele>1488.47</ele>
        <time>2015-07-08T18:10:23Z</time>
      </trkpt>
      <trkpt lat="45.30789" lon="5.83089">
        <ele>1482.83</ele>
        <time>2015-07-08T18:10:32Z</time>
      </trkpt>
      <trkpt lat="45.30779" lon="5.83112">
        <ele>1486.6</ele>
        <time>2015-07-08T18:10:38Z</time>
      </trkpt>
      <trkpt lat="45.30765" lon="5.83129">
        <ele>1486.19</ele>
        <time>2015-07-08T18:10:44Z</time>
      </trkpt>
      <trkpt lat="45.30752" lon="5.83148">
        <ele>1477.29</ele>
        <time>2015-07-08T18:10:53Z</time>
      </trkpt>
      <trkpt lat="45.30736" lon="5.83168">
        <ele>1476.11</ele>
        <time>2015-07-08T18:11:00Z</time>
      </trkpt>
      <trkpt lat="45.30722" lon="5.83184">
        <ele>1476.56</ele>
        <time>2015-07-08T18:11:07Z</time>
      </trkpt>
      <trkpt lat="45.30706" lon="5.83201">
        <ele>1471.61</ele>
        <time>2015-07-08T18:11:14Z</time>
      </trkpt>
      <trkpt lat="45.30694" lon="5.83222">
        <ele>1470.56</ele>
        <time>2015-07-08T18:11:21Z</time>
      </trkpt>
      <trkpt lat="45.30674" lon="5.83225">
        <ele>1473.17</ele>
        <time>2015-07-08T18:11:32Z</time>
      </trkpt>
      <trkpt lat="45.30656" lon="5.83235">
        <ele>1473.77</ele>
        <time>2015-07-08T18:11:38Z</time>
      </trkpt>
      <trkpt lat="45.30638" lon="5.83249">
        <ele>1477.56</ele>
        <time>2015-07-08T18:11:44Z</time>
      </trkpt>
      <trkpt lat="45.30624" lon="5.83266">
        <ele>1473.07</ele>
        <time>2015-07-08T18:11:51Z</time>
      </trkpt>
      <trkpt lat="45.30606" lon="5.83275">
        <ele>1470.98</ele>
        <time>2015-07-08T18:12:00Z</time>
      </trkpt>
      <trkpt lat="45.30586" lon="5.83286">
        <ele>1465.19</ele>
        <time>2015-07-08T18:12:07Z</time>
      </trkpt>
      <trkpt lat="45.30569" lon="5.83301">
        <ele>1456.47</ele>
        <time>2015-07-08T18:12:14Z</time>
      </trkpt>
      <trkpt lat="45.30552" lon="5.83315">
        <ele>1457.81</ele>
        <time>2015-07-08T18:12:20Z</time>
      </trkpt>
      <trkpt lat="45.30535" lon="5.83329">
        <ele>1458.97</ele>
        <time>2015-07-08T18:12:25Z</time>
      </trkpt>
      <trkpt lat="45.30515" lon="5.83341">
        <ele>1459.15</ele>
        <time>2015-07-08T18:12:31Z</time>
      </trkpt>
      <trkpt lat="45.30497" lon="5.83349">
        <ele>1453.13</ele>
        <time>2015-07-08T18:12:37Z</time>
      </trkpt>
      <trkpt lat="45.30481" lon="5.83365">
        <ele>1445.9</ele>
        <time>2015-07-08T18:12:46Z</time>
      </trkpt>
      <trkpt lat="45.30465" lon="5.83382">
        <ele>1441.25</ele>
        <time>2015-07-08T18:12:55Z</time>
      </trkpt>
      <trkpt lat="45.30447" lon="5.83396">
        <ele>1439.74</ele>
        <time>2015-07-08T18:13:03Z</time>
      </trkpt>
      <trkpt lat="45.3043" lon="5.83403">
        <ele>1441.16</ele>
        <time>2015-07-08T18:13:08Z</time>
      </trkpt>
      <trkpt lat="45.30414" lon="5.83418">
        <ele>1443.08</ele>
        <time>2015-07-08T18:13:15Z</time>
      </trkpt>
      <trkpt lat="45.30399" lon="5.83437">
        <ele>1436.79</ele>
        <time>2015-07-08T18:13:24Z</time>
      </trkpt>
      <trkpt lat="45.30381" lon="5.83445">
        <ele>1437.73</ele>
        <time>2015-07-08T18:13:31Z</time>
      </trkpt>
      <trkpt lat="45.30364" lon="5.83456">
        <ele>1434.56</ele>
        <time>2015-07-08T18:13:44Z</time>
      </trkpt>
      <trkpt lat="45.3036" lon="5.83483">
        <ele>1430.78</ele>
        <time>2015-07-08T18:14:16Z</time>
      </trkpt>
      <trkpt lat="45.30349" lon="5.83505">
        <ele>1431.94</ele>
        <time>2015-07-08T18:14:27Z</time>
      </trkpt>
      <trkpt lat="45.30332" lon="5.8352">
        <ele>1435.85</ele>
        <time>2015-07-08T18:14:37Z</time>
      </trkpt>
      <trkpt lat="45.30317" lon="5.83534">
        <ele>1432.77</ele>
        <time>2015-07-08T18:14:47Z</time>
      </trkpt>
      <trkpt lat="45.30302" lon="5.83551">
        <ele>1432.98</ele>
        <time>2015-07-08T18:14:55Z</time>
      </trkpt>
      <trkpt lat="45.30295" lon="5.83577">
        <ele>1424.94</ele>
        <time>2015-07-08T18:15:01Z</time>
      </trkpt>
      <trkpt lat="45.30285" lon="5.836">
        <ele>1427.53</ele>
        <time>2015-07-08T18:15:08Z</time>
      </trkpt>
      <trkpt lat="45.30275" lon="5.83625">
        <ele>1427.26</ele>
        <time>2015-07-08T18:15:16Z</time>
      </trkpt>
      <trkpt lat="45.30264" lon="5.83648">
        <ele>1424.82</ele>
        <time>2015-07-08T18:15:26Z</time>
      </trkpt>
      <trkpt lat="45.3025" lon="5.83669">
        <ele>1425.02</ele>
        <time>2015-07-08T18:15:38Z</time>
      </trkpt>
      <trkpt lat="45.30251" lon="5.83694">
        <ele>1425.35</ele>
        <time>2015-07-08T18:15:48Z</time>
      </trkpt>
      <trkpt lat="45.30269" lon="5.83706">
        <ele>1422.82</ele>
        <time>2015-07-08T18:15:56Z</time>
      </trkpt>
      <trkpt lat="45.30286" lon="5.8372">
        <ele>1422.27</ele>
        <time>2015-07-08T18:16:04Z</time>
      </trkpt>
      <trkpt lat="45.30301" lon="5.83735">
        <ele>1424.88</ele>
        <time>2015-07-08T18:16:10Z</time>
      </trkpt>
      <trkpt lat="45.30317" lon="5.8375">
        <ele>1421.49</ele>
        <time>2015-07-08T18:16:17Z</time>
      </trkpt>
      <trkpt lat="45.30334" lon="5.83763">
        <ele>1418.98</ele>
        <time>2015-07-08T18:16:24Z</time>
      </trkpt>
      <trkpt lat="45.30352" lon="5.83771">
        <ele>1417.75</ele>
        <time>2015-07-08T18:16:31Z</time>
      </trkpt>
      <trkpt lat="45.3037" lon="5.83778">
        <ele>1416.14</ele>
        <time>2015-07-08T18:16:38Z</time>
      </trkpt>
      <trkpt lat="45.30389" lon="5.83785">
        <ele>1415.08</ele>
        <time>2015-07-08T18:16:45Z</time>
      </trkpt>
      <trkpt lat="45.30406" lon="5.838">
        <ele>1416.33</ele>
        <time>2015-07-08T18:16:51Z</time>
      </trkpt>
      <trkpt lat="45.30415" lon="5.83823">
        <ele>1411.79</ele>
        <time>2015-07-08T18:16:59Z</time>
      </trkpt>
      <trkpt lat="45.30426" lon="5.83848">
        <ele>1407.99</ele>
        <time>2015-07-08T18:17:07Z</time>
      </trkpt>
      <trkpt lat="45.30439" lon="5.83867">
        <ele>1407.63</ele>
        <time>2015-07-08T18:17:14Z</time>
      </trkpt>
    </trkseg>
  </trk>
</gpx>